sensor_id;sensor_type;location;lat;lon;timestamp;P1;durP1;ratioP1;P2;durP2;ratioP2
78885;SDS011;68269;52.514;5.722;2023-04-24T00:01:45;4.93;;;1.40;;
78885;SDS011;68269;52.514;5.722;2023-04-24T00:04:15;4.32;;;1.20;;
78885;SDS011;68269;52.514;5.722;2023-04-24T00:06:47;2.85;;;1.08;;
78885;SDS011;68269;52.514;5.722;2023-04-24T00:09:19;3.25;;;1.00;;
78885;SDS011;68269;52.514;5.722;2023-04-24T00:11:48;3.45;;;1.05;;
78885;SDS011;68269;52.514;5.722;2023-04-24T00:14:18;3.25;;;1.08;;
78885;SDS011;68269;52.514;5.722;2023-04-24T00:16:47;3.65;;;1.55;;
78885;SDS011;68269;52.514;5.722;2023-04-24T00:19:19;5.68;;;1.15;;
78885;SDS011;68269;52.514;5.722;2023-04-24T00:21:49;3.47;;;1.27;;
78885;SDS011;68269;52.514;5.722;2023-04-24T00:24:19;3.08;;;1.10;;
78885;SDS011;68269;52.514;5.722;2023-04-24T00:26:49;3.58;;;1.27;;
78885;SDS011;68269;52.514;5.722;2023-04-24T00:29:18;5.50;;;1.80;;
78885;SDS011;68269;52.514;5.722;2023-04-24T00:31:47;4.05;;;1.20;;
78885;SDS011;68269;52.514;5.722;2023-04-24T00:34:19;4.93;;;1.45;;
78885;SDS011;68269;52.514;5.722;2023-04-24T00:36:49;5.03;;;1.75;;
78885;SDS011;68269;52.514;5.722;2023-04-24T00:39:18;5.78;;;1.60;;
78885;SDS011;68269;52.514;5.722;2023-04-24T00:41:48;5.60;;;2.13;;
78885;SDS011;68269;52.514;5.722;2023-04-24T00:44:19;6.18;;;2.03;;
78885;SDS011;68269;52.514;5.722;2023-04-24T00:46:48;5.63;;;1.80;;
78885;SDS011;68269;52.514;5.722;2023-04-24T00:49:23;7.90;;;2.45;;
78885;SDS011;68269;52.514;5.722;2023-04-24T00:51:52;5.88;;;1.80;;
78885;SDS011;68269;52.514;5.722;2023-04-24T00:54:22;5.55;;;1.70;;
78885;SDS011;68269;52.514;5.722;2023-04-24T00:56:51;4.65;;;1.50;;
78885;SDS011;68269;52.514;5.722;2023-04-24T00:59:22;2.70;;;0.90;;
78885;SDS011;68269;52.514;5.722;2023-04-24T01:01:52;3.28;;;1.13;;
78885;SDS011;68269;52.514;5.722;2023-04-24T01:04:24;2.72;;;0.90;;
78885;SDS011;68269;52.514;5.722;2023-04-24T01:06:54;4.50;;;1.33;;
78885;SDS011;68269;52.514;5.722;2023-04-24T01:09:25;3.60;;;0.88;;
78885;SDS011;68269;52.514;5.722;2023-04-24T01:11:57;4.05;;;1.13;;
78885;SDS011;68269;52.514;5.722;2023-04-24T01:14:27;3.70;;;1.20;;
78885;SDS011;68269;52.514;5.722;2023-04-24T01:16:56;3.42;;;1.23;;
78885;SDS011;68269;52.514;5.722;2023-04-24T01:19:29;4.43;;;1.40;;
78885;SDS011;68269;52.514;5.722;2023-04-24T01:21:59;4.13;;;1.33;;
78885;SDS011;68269;52.514;5.722;2023-04-24T01:24:33;2.50;;;1.00;;
78885;SDS011;68269;52.514;5.722;2023-04-24T01:27:04;1.83;;;0.85;;
78885;SDS011;68269;52.514;5.722;2023-04-24T01:29:34;2.60;;;0.90;;
78885;SDS011;68269;52.514;5.722;2023-04-24T01:32:04;2.08;;;0.77;;
78885;SDS011;68269;52.514;5.722;2023-04-24T01:34:34;2.17;;;0.80;;
78885;SDS011;68269;52.514;5.722;2023-04-24T01:37:03;1.73;;;0.75;;
78885;SDS011;68269;52.514;5.722;2023-04-24T01:39:36;1.92;;;0.80;;
78885;SDS011;68269;52.514;5.722;2023-04-24T01:42:05;1.23;;;0.80;;
78885;SDS011;68269;52.514;5.722;2023-04-24T01:44:35;1.60;;;0.65;;
78885;SDS011;68269;52.514;5.722;2023-04-24T01:47:04;3.00;;;1.05;;
78885;SDS011;68269;52.514;5.722;2023-04-24T01:49:34;2.85;;;0.90;;
78885;SDS011;68269;52.514;5.722;2023-04-24T01:52:04;1.73;;;0.65;;
78885;SDS011;68269;52.514;5.722;2023-04-24T01:54:36;2.72;;;0.60;;
78885;SDS011;68269;52.514;5.722;2023-04-24T01:57:06;2.08;;;0.77;;
78885;SDS011;68269;52.514;5.722;2023-04-24T01:59:36;1.38;;;0.60;;
78885;SDS011;68269;52.514;5.722;2023-04-24T02:02:05;1.88;;;0.65;;
78885;SDS011;68269;52.514;5.722;2023-04-24T02:04:35;1.33;;;0.70;;
78885;SDS011;68269;52.514;5.722;2023-04-24T02:07:04;1.42;;;0.50;;
78885;SDS011;68269;52.514;5.722;2023-04-24T02:09:33;0.70;;;0.32;;
78885;SDS011;68269;52.514;5.722;2023-04-24T02:12:05;0.73;;;0.30;;
78885;SDS011;68269;52.514;5.722;2023-04-24T02:14:34;2.17;;;0.40;;
78885;SDS011;68269;52.514;5.722;2023-04-24T02:17:04;0.65;;;0.30;;
78885;SDS011;68269;52.514;5.722;2023-04-24T02:19:36;1.45;;;0.40;;
78885;SDS011;68269;52.514;5.722;2023-04-24T02:22:05;0.77;;;0.25;;
78885;SDS011;68269;52.514;5.722;2023-04-24T02:24:38;0.52;;;0.35;;
78885;SDS011;68269;52.514;5.722;2023-04-24T02:27:08;1.70;;;0.47;;
78885;SDS011;68269;52.514;5.722;2023-04-24T02:29:37;1.63;;;0.77;;
78885;SDS011;68269;52.514;5.722;2023-04-24T02:32:06;0.73;;;0.40;;
78885;SDS011;68269;52.514;5.722;2023-04-24T02:34:37;0.63;;;0.38;;
78885;SDS011;68269;52.514;5.722;2023-04-24T02:37:06;1.17;;;0.50;;
78885;SDS011;68269;52.514;5.722;2023-04-24T02:39:38;1.42;;;0.50;;
78885;SDS011;68269;52.514;5.722;2023-04-24T02:42:08;0.40;;;0.25;;
78885;SDS011;68269;52.514;5.722;2023-04-24T02:44:37;1.30;;;0.50;;
78885;SDS011;68269;52.514;5.722;2023-04-24T02:47:06;0.32;;;0.20;;
78885;SDS011;68269;52.514;5.722;2023-04-24T02:49:36;1.17;;;0.32;;
78885;SDS011;68269;52.514;5.722;2023-04-24T02:52:05;0.90;;;0.20;;
78885;SDS011;68269;52.514;5.722;2023-04-24T02:54:34;0.38;;;0.32;;
78885;SDS011;68269;52.514;5.722;2023-04-24T02:57:06;0.50;;;0.30;;
78885;SDS011;68269;52.514;5.722;2023-04-24T02:59:38;0.52;;;0.20;;
78885;SDS011;68269;52.514;5.722;2023-04-24T03:02:07;0.40;;;0.25;;
78885;SDS011;68269;52.514;5.722;2023-04-24T03:04:36;2.45;;;0.40;;
78885;SDS011;68269;52.514;5.722;2023-04-24T03:07:06;0.90;;;0.38;;
78885;SDS011;68269;52.514;5.722;2023-04-24T03:09:36;0.50;;;0.30;;
78885;SDS011;68269;52.514;5.722;2023-04-24T03:12:08;0.80;;;0.22;;
78885;SDS011;68269;52.514;5.722;2023-04-24T03:14:38;0.38;;;0.30;;
78885;SDS011;68269;52.514;5.722;2023-04-24T03:17:08;0.20;;;0.20;;
78885;SDS011;68269;52.514;5.722;2023-04-24T03:19:37;0.20;;;0.20;;
78885;SDS011;68269;52.514;5.722;2023-04-24T03:22:09;0.52;;;0.20;;
78885;SDS011;68269;52.514;5.722;2023-04-24T03:24:40;3.58;;;0.50;;
78885;SDS011;68269;52.514;5.722;2023-04-24T03:27:11;1.17;;;0.20;;
78885;SDS011;68269;52.514;5.722;2023-04-24T03:29:52;0.28;;;0.28;;
78885;SDS011;68269;52.514;5.722;2023-04-24T03:32:26;0.73;;;0.30;;
78885;SDS011;68269;52.514;5.722;2023-04-24T03:34:57;1.55;;;0.28;;
78885;SDS011;68269;52.514;5.722;2023-04-24T03:37:27;0.65;;;0.30;;
78885;SDS011;68269;52.514;5.722;2023-04-24T03:40:13;0.45;;;0.38;;
78885;SDS011;68269;52.514;5.722;2023-04-24T03:42:45;0.60;;;0.50;;
78885;SDS011;68269;52.514;5.722;2023-04-24T03:45:14;1.08;;;0.47;;
78885;SDS011;68269;52.514;5.722;2023-04-24T03:47:47;0.57;;;0.30;;
78885;SDS011;68269;52.514;5.722;2023-04-24T03:50:16;0.95;;;0.45;;
78885;SDS011;68269;52.514;5.722;2023-04-24T03:52:46;0.80;;;0.32;;
78885;SDS011;68269;52.514;5.722;2023-04-24T03:55:26;1.08;;;0.40;;
78885;SDS011;68269;52.514;5.722;2023-04-24T03:57:58;0.70;;;0.32;;
78885;SDS011;68269;52.514;5.722;2023-04-24T04:00:27;0.73;;;0.38;;
78885;SDS011;68269;52.514;5.722;2023-04-24T04:05:48;2.47;;;0.60;;
78885;SDS011;68269;52.514;5.722;2023-04-24T04:08:17;1.02;;;0.50;;
78885;SDS011;68269;52.514;5.722;2023-04-24T04:10:47;1.98;;;0.57;;
78885;SDS011;68269;52.514;5.722;2023-04-24T04:13:19;0.93;;;0.50;;
78885;SDS011;68269;52.514;5.722;2023-04-24T04:15:49;0.50;;;0.30;;
78885;SDS011;68269;52.514;5.722;2023-04-24T04:18:18;2.67;;;0.80;;
78885;SDS011;68269;52.514;5.722;2023-04-24T04:20:47;1.10;;;0.63;;
78885;SDS011;68269;52.514;5.722;2023-04-24T04:23:17;2.53;;;0.57;;
78885;SDS011;68269;52.514;5.722;2023-04-24T04:26:03;0.93;;;0.30;;
78885;SDS011;68269;52.514;5.722;2023-04-24T04:29:02;0.57;;;0.38;;
78885;SDS011;68269;52.514;5.722;2023-04-24T04:31:34;0.30;;;0.30;;
78885;SDS011;68269;52.514;5.722;2023-04-24T04:34:08;0.88;;;0.30;;
78885;SDS011;68269;52.514;5.722;2023-04-24T04:36:38;1.10;;;0.47;;
78885;SDS011;68269;52.514;5.722;2023-04-24T04:39:23;1.73;;;0.50;;
78885;SDS011;68269;52.514;5.722;2023-04-24T04:42:06;0.88;;;0.32;;
78885;SDS011;68269;52.514;5.722;2023-04-24T04:44:42;1.80;;;0.45;;
78885;SDS011;68269;52.514;5.722;2023-04-24T04:47:18;1.35;;;0.68;;
78885;SDS011;68269;52.514;5.722;2023-04-24T04:49:51;1.50;;;0.60;;
78885;SDS011;68269;52.514;5.722;2023-04-24T04:52:23;1.20;;;0.50;;
78885;SDS011;68269;52.514;5.722;2023-04-24T04:55:02;2.03;;;0.63;;
78885;SDS011;68269;52.514;5.722;2023-04-24T04:57:58;1.92;;;0.45;;
78885;SDS011;68269;52.514;5.722;2023-04-24T05:00:30;0.93;;;0.30;;
78885;SDS011;68269;52.514;5.722;2023-04-24T05:03:05;2.28;;;0.68;;
78885;SDS011;68269;52.514;5.722;2023-04-24T05:05:35;1.15;;;0.52;;
78885;SDS011;68269;52.514;5.722;2023-04-24T05:08:07;1.55;;;0.60;;
78885;SDS011;68269;52.514;5.722;2023-04-24T05:10:37;1.60;;;0.65;;
78885;SDS011;68269;52.514;5.722;2023-04-24T05:13:06;1.20;;;0.40;;
78885;SDS011;68269;52.514;5.722;2023-04-24T05:15:38;2.50;;;0.57;;
78885;SDS011;68269;52.514;5.722;2023-04-24T05:18:08;1.55;;;0.47;;
78885;SDS011;68269;52.514;5.722;2023-04-24T05:20:37;2.72;;;0.60;;
78885;SDS011;68269;52.514;5.722;2023-04-24T05:23:08;1.67;;;0.60;;
78885;SDS011;68269;52.514;5.722;2023-04-24T05:25:40;1.58;;;0.63;;
78885;SDS011;68269;52.514;5.722;2023-04-24T05:28:12;1.48;;;0.50;;
78885;SDS011;68269;52.514;5.722;2023-04-24T05:30:46;1.95;;;0.60;;
78885;SDS011;68269;52.514;5.722;2023-04-24T05:33:16;1.75;;;0.40;;
78885;SDS011;68269;52.514;5.722;2023-04-24T05:35:46;2.20;;;0.52;;
78885;SDS011;68269;52.514;5.722;2023-04-24T05:38:15;1.15;;;0.47;;
78885;SDS011;68269;52.514;5.722;2023-04-24T05:40:47;2.33;;;0.80;;
78885;SDS011;68269;52.514;5.722;2023-04-24T05:43:17;5.10;;;0.70;;
78885;SDS011;68269;52.514;5.722;2023-04-24T05:45:49;1.80;;;0.60;;
78885;SDS011;68269;52.514;5.722;2023-04-24T05:48:19;2.30;;;0.60;;
78885;SDS011;68269;52.514;5.722;2023-04-24T05:50:48;1.63;;;0.50;;
78885;SDS011;68269;52.514;5.722;2023-04-24T05:53:18;3.58;;;0.80;;
78885;SDS011;68269;52.514;5.722;2023-04-24T05:55:47;1.80;;;0.70;;
78885;SDS011;68269;52.514;5.722;2023-04-24T05:58:17;3.20;;;0.70;;
78885;SDS011;68269;52.514;5.722;2023-04-24T06:00:49;3.08;;;1.08;;
78885;SDS011;68269;52.514;5.722;2023-04-24T06:03:19;4.10;;;0.98;;
78885;SDS011;68269;52.514;5.722;2023-04-24T06:05:49;4.18;;;0.70;;
78885;SDS011;68269;52.514;5.722;2023-04-24T06:08:20;3.42;;;1.05;;
78885;SDS011;68269;52.514;5.722;2023-04-24T06:10:49;4.20;;;1.02;;
78885;SDS011;68269;52.514;5.722;2023-04-24T06:13:20;3.58;;;1.00;;
78885;SDS011;68269;52.514;5.722;2023-04-24T06:16:11;4.65;;;0.93;;
78885;SDS011;68269;52.514;5.722;2023-04-24T06:18:45;4.20;;;1.10;;
78885;SDS011;68269;52.514;5.722;2023-04-24T06:21:15;5.00;;;1.20;;
78885;SDS011;68269;52.514;5.722;2023-04-24T06:23:45;3.35;;;0.80;;
78885;SDS011;68269;52.514;5.722;2023-04-24T06:26:15;3.30;;;0.70;;
78885;SDS011;68269;52.514;5.722;2023-04-24T06:28:45;2.05;;;0.80;;
78885;SDS011;68269;52.514;5.722;2023-04-24T06:31:17;2.90;;;0.70;;
78885;SDS011;68269;52.514;5.722;2023-04-24T06:33:47;1.42;;;0.68;;
78885;SDS011;68269;52.514;5.722;2023-04-24T06:36:17;2.97;;;0.90;;
78885;SDS011;68269;52.514;5.722;2023-04-24T06:38:46;4.28;;;1.02;;
78885;SDS011;68269;52.514;5.722;2023-04-24T06:41:15;8.45;;;2.50;;
78885;SDS011;68269;52.514;5.722;2023-04-24T06:43:45;9.05;;;3.00;;
78885;SDS011;68269;52.514;5.722;2023-04-24T06:46:16;7.85;;;2.65;;
78885;SDS011;68269;52.514;5.722;2023-04-24T06:48:47;9.95;;;3.20;;
78885;SDS011;68269;52.514;5.722;2023-04-24T06:51:17;9.50;;;2.78;;
78885;SDS011;68269;52.514;5.722;2023-04-24T06:53:46;10.00;;;3.00;;
78885;SDS011;68269;52.514;5.722;2023-04-24T06:56:15;13.77;;;3.65;;
78885;SDS011;68269;52.514;5.722;2023-04-24T06:58:45;10.18;;;3.35;;
78885;SDS011;68269;52.514;5.722;2023-04-24T07:01:17;10.85;;;3.72;;
78885;SDS011;68269;52.514;5.722;2023-04-24T07:03:46;8.82;;;3.20;;
78885;SDS011;68269;52.514;5.722;2023-04-24T07:06:15;9.85;;;3.55;;
78885;SDS011;68269;52.514;5.722;2023-04-24T07:08:47;11.85;;;3.42;;
78885;SDS011;68269;52.514;5.722;2023-04-24T07:11:16;8.63;;;2.65;;
78885;SDS011;68269;52.514;5.722;2023-04-24T07:13:45;10.27;;;2.58;;
78885;SDS011;68269;52.514;5.722;2023-04-24T07:16:17;4.65;;;1.45;;
78885;SDS011;68269;52.514;5.722;2023-04-24T07:18:46;4.72;;;1.50;;
78885;SDS011;68269;52.514;5.722;2023-04-24T07:21:16;4.80;;;1.40;;
78885;SDS011;68269;52.514;5.722;2023-04-24T07:23:45;7.80;;;2.28;;
78885;SDS011;68269;52.514;5.722;2023-04-24T07:26:14;7.07;;;2.15;;
78885;SDS011;68269;52.514;5.722;2023-04-24T07:28:43;8.50;;;2.97;;
78885;SDS011;68269;52.514;5.722;2023-04-24T07:31:13;8.07;;;2.97;;
78885;SDS011;68269;52.514;5.722;2023-04-24T07:33:45;9.15;;;2.53;;
78885;SDS011;68269;52.514;5.722;2023-04-24T07:36:14;11.45;;;3.92;;
78885;SDS011;68269;52.514;5.722;2023-04-24T07:38:44;10.75;;;3.17;;
78885;SDS011;68269;52.514;5.722;2023-04-24T07:41:14;12.52;;;3.13;;
78885;SDS011;68269;52.514;5.722;2023-04-24T07:43:44;10.27;;;2.45;;
78885;SDS011;68269;52.514;5.722;2023-04-24T07:46:13;9.35;;;3.10;;
78885;SDS011;68269;52.514;5.722;2023-04-24T07:48:45;7.35;;;2.47;;
78885;SDS011;68269;52.514;5.722;2023-04-24T07:51:14;10.02;;;2.90;;
78885;SDS011;68269;52.514;5.722;2023-04-24T07:53:44;8.30;;;2.63;;
78885;SDS011;68269;52.514;5.722;2023-04-24T07:56:13;9.23;;;2.70;;
78885;SDS011;68269;52.514;5.722;2023-04-24T07:58:42;6.30;;;2.15;;
78885;SDS011;68269;52.514;5.722;2023-04-24T08:01:12;9.43;;;2.50;;
78885;SDS011;68269;52.514;5.722;2023-04-24T08:03:41;7.72;;;2.88;;
78885;SDS011;68269;52.514;5.722;2023-04-24T08:06:13;8.23;;;2.35;;
78885;SDS011;68269;52.514;5.722;2023-04-24T08:08:42;8.32;;;2.75;;
78885;SDS011;68269;52.514;5.722;2023-04-24T08:11:12;8.35;;;2.33;;
78885;SDS011;68269;52.514;5.722;2023-04-24T08:13:41;13.50;;;2.47;;
78885;SDS011;68269;52.514;5.722;2023-04-24T08:16:10;7.30;;;2.55;;
78885;SDS011;68269;52.514;5.722;2023-04-24T08:18:40;9.88;;;2.33;;
78885;SDS011;68269;52.514;5.722;2023-04-24T08:21:09;8.27;;;2.30;;
78885;SDS011;68269;52.514;5.722;2023-04-24T08:23:45;4.80;;;1.95;;
78885;SDS011;68269;52.514;5.722;2023-04-24T08:26:14;7.45;;;1.77;;
78885;SDS011;68269;52.514;5.722;2023-04-24T08:28:45;7.32;;;1.85;;
78885;SDS011;68269;52.514;5.722;2023-04-24T08:31:14;9.40;;;2.10;;
78885;SDS011;68269;52.514;5.722;2023-04-24T08:33:44;7.63;;;2.00;;
78885;SDS011;68269;52.514;5.722;2023-04-24T08:36:13;8.95;;;2.20;;
78885;SDS011;68269;52.514;5.722;2023-04-24T08:38:45;8.18;;;1.95;;
78885;SDS011;68269;52.514;5.722;2023-04-24T08:41:14;9.73;;;2.50;;
78885;SDS011;68269;52.514;5.722;2023-04-24T08:43:45;9.95;;;2.17;;
78885;SDS011;68269;52.514;5.722;2023-04-24T08:46:15;5.57;;;2.17;;
78885;SDS011;68269;52.514;5.722;2023-04-24T08:48:46;12.60;;;2.78;;
78885;SDS011;68269;52.514;5.722;2023-04-24T08:51:17;7.47;;;1.40;;
78885;SDS011;68269;52.514;5.722;2023-04-24T08:53:50;10.77;;;2.58;;
78885;SDS011;68269;52.514;5.722;2023-04-24T08:56:22;8.55;;;2.10;;
78885;SDS011;68269;52.514;5.722;2023-04-24T08:58:52;11.15;;;1.80;;
78885;SDS011;68269;52.514;5.722;2023-04-24T09:01:22;6.95;;;1.67;;
78885;SDS011;68269;52.514;5.722;2023-04-24T09:03:54;7.93;;;1.63;;
78885;SDS011;68269;52.514;5.722;2023-04-24T09:06:24;6.68;;;1.70;;
78885;SDS011;68269;52.514;5.722;2023-04-24T09:08:57;6.70;;;2.03;;
78885;SDS011;68269;52.514;5.722;2023-04-24T09:11:30;9.13;;;1.60;;
78885;SDS011;68269;52.514;5.722;2023-04-24T09:14:00;8.70;;;1.73;;
78885;SDS011;68269;52.514;5.722;2023-04-24T09:16:29;5.80;;;1.60;;
78885;SDS011;68269;52.514;5.722;2023-04-24T09:18:59;4.18;;;1.40;;
78885;SDS011;68269;52.514;5.722;2023-04-24T09:21:31;3.53;;;1.33;;
78885;SDS011;68269;52.514;5.722;2023-04-24T09:24:05;3.28;;;1.17;;
78885;SDS011;68269;52.514;5.722;2023-04-24T09:26:43;11.15;;;1.88;;
78885;SDS011;68269;52.514;5.722;2023-04-24T09:29:16;6.95;;;1.35;;
78885;SDS011;68269;52.514;5.722;2023-04-24T09:34:18;7.07;;;1.27;;
78885;SDS011;68269;52.514;5.722;2023-04-24T09:36:51;8.23;;;1.40;;
78885;SDS011;68269;52.514;5.722;2023-04-24T09:39:23;7.43;;;1.20;;
78885;SDS011;68269;52.514;5.722;2023-04-24T09:41:53;6.88;;;1.80;;
78885;SDS011;68269;52.514;5.722;2023-04-24T09:44:26;3.83;;;1.13;;
78885;SDS011;68269;52.514;5.722;2023-04-24T09:46:57;6.28;;;1.48;;
78885;SDS011;68269;52.514;5.722;2023-04-24T09:49:27;7.22;;;0.93;;
78885;SDS011;68269;52.514;5.722;2023-04-24T09:52:02;5.53;;;0.88;;
78885;SDS011;68269;52.514;5.722;2023-04-24T09:54:34;5.55;;;1.10;;
78885;SDS011;68269;52.514;5.722;2023-04-24T09:57:06;7.88;;;1.08;;
78885;SDS011;68269;52.514;5.722;2023-04-24T09:59:38;7.28;;;0.98;;
78885;SDS011;68269;52.514;5.722;2023-04-24T10:02:16;6.45;;;1.00;;
78885;SDS011;68269;52.514;5.722;2023-04-24T10:04:53;7.97;;;0.93;;
78885;SDS011;68269;52.514;5.722;2023-04-24T10:07:25;3.63;;;1.17;;
78885;SDS011;68269;52.514;5.722;2023-04-24T10:09:57;7.38;;;1.23;;
78885;SDS011;68269;52.514;5.722;2023-04-24T10:12:27;7.65;;;0.95;;
78885;SDS011;68269;52.514;5.722;2023-04-24T10:14:57;4.45;;;0.93;;
78885;SDS011;68269;52.514;5.722;2023-04-24T10:17:27;4.57;;;0.95;;
78885;SDS011;68269;52.514;5.722;2023-04-24T10:19:57;5.93;;;0.95;;
78885;SDS011;68269;52.514;5.722;2023-04-24T10:22:28;5.70;;;0.93;;
78885;SDS011;68269;52.514;5.722;2023-04-24T10:25:01;5.80;;;1.00;;
78885;SDS011;68269;52.514;5.722;2023-04-24T10:27:32;6.18;;;1.15;;
78885;SDS011;68269;52.514;5.722;2023-04-24T10:30:03;5.15;;;1.13;;
78885;SDS011;68269;52.514;5.722;2023-04-24T10:32:34;3.47;;;0.90;;
78885;SDS011;68269;52.514;5.722;2023-04-24T10:35:04;4.82;;;1.00;;
78885;SDS011;68269;52.514;5.722;2023-04-24T10:37:36;4.00;;;0.80;;
78885;SDS011;68269;52.514;5.722;2023-04-24T10:40:11;5.43;;;0.90;;
78885;SDS011;68269;52.514;5.722;2023-04-24T10:42:47;3.30;;;0.95;;
78885;SDS011;68269;52.514;5.722;2023-04-24T10:45:17;3.08;;;0.65;;
78885;SDS011;68269;52.514;5.722;2023-04-24T10:47:54;7.32;;;1.02;;
78885;SDS011;68269;52.514;5.722;2023-04-24T10:50:27;1.65;;;0.70;;
78885;SDS011;68269;52.514;5.722;2023-04-24T10:53:05;2.22;;;0.55;;
78885;SDS011;68269;52.514;5.722;2023-04-24T10:55:47;8.63;;;1.15;;
78885;SDS011;68269;52.514;5.722;2023-04-24T10:58:21;2.97;;;0.77;;
78885;SDS011;68269;52.514;5.722;2023-04-24T11:00:55;1.92;;;0.63;;
78885;SDS011;68269;52.514;5.722;2023-04-24T11:03:26;2.83;;;0.75;;
78885;SDS011;68269;52.514;5.722;2023-04-24T11:05:56;2.55;;;0.70;;
78885;SDS011;68269;52.514;5.722;2023-04-24T11:08:29;4.53;;;0.70;;
78885;SDS011;68269;52.514;5.722;2023-04-24T11:11:02;3.92;;;0.80;;
78885;SDS011;68269;52.514;5.722;2023-04-24T11:16:30;3.22;;;0.68;;
78885;SDS011;68269;52.514;5.722;2023-04-24T11:19:02;2.42;;;0.77;;
78885;SDS011;68269;52.514;5.722;2023-04-24T11:21:39;3.85;;;0.68;;
78885;SDS011;68269;52.514;5.722;2023-04-24T11:26:59;4.00;;;0.50;;
78885;SDS011;68269;52.514;5.722;2023-04-24T11:29:40;3.78;;;0.63;;
78885;SDS011;68269;52.514;5.722;2023-04-24T11:32:16;3.10;;;0.60;;
78885;SDS011;68269;52.514;5.722;2023-04-24T11:34:47;1.08;;;0.30;;
78885;SDS011;68269;52.514;5.722;2023-04-24T11:37:17;4.95;;;0.88;;
78885;SDS011;68269;52.514;5.722;2023-04-24T11:39:46;2.00;;;0.60;;
78885;SDS011;68269;52.514;5.722;2023-04-24T11:42:21;2.35;;;0.73;;
78885;SDS011;68269;52.514;5.722;2023-04-24T11:44:52;3.90;;;0.70;;
78885;SDS011;68269;52.514;5.722;2023-04-24T11:47:31;3.20;;;0.68;;
78885;SDS011;68269;52.514;5.722;2023-04-24T11:50:01;2.63;;;0.60;;
78885;SDS011;68269;52.514;5.722;2023-04-24T11:52:33;2.22;;;0.60;;
78885;SDS011;68269;52.514;5.722;2023-04-24T11:55:06;1.20;;;0.22;;
78885;SDS011;68269;52.514;5.722;2023-04-24T11:57:41;1.88;;;0.45;;
78885;SDS011;68269;52.514;5.722;2023-04-24T12:00:15;2.35;;;0.28;;
78885;SDS011;68269;52.514;5.722;2023-04-24T12:02:46;2.55;;;0.68;;
78885;SDS011;68269;52.514;5.722;2023-04-24T12:05:18;2.55;;;0.45;;
78885;SDS011;68269;52.514;5.722;2023-04-24T12:07:49;2.53;;;0.50;;
78885;SDS011;68269;52.514;5.722;2023-04-24T12:10:19;5.70;;;0.70;;
78885;SDS011;68269;52.514;5.722;2023-04-24T12:12:52;2.60;;;0.47;;
78885;SDS011;68269;52.514;5.722;2023-04-24T12:15:22;3.85;;;0.68;;
78885;SDS011;68269;52.514;5.722;2023-04-24T12:17:52;2.17;;;0.60;;
78885;SDS011;68269;52.514;5.722;2023-04-24T12:20:26;2.20;;;0.52;;
78885;SDS011;68269;52.514;5.722;2023-04-24T12:22:57;3.38;;;1.00;;
78885;SDS011;68269;52.514;5.722;2023-04-24T12:25:28;2.60;;;0.45;;
78885;SDS011;68269;52.514;5.722;2023-04-24T12:28:11;0.57;;;0.30;;
78885;SDS011;68269;52.514;5.722;2023-04-24T12:30:41;2.50;;;0.52;;
78885;SDS011;68269;52.514;5.722;2023-04-24T12:33:16;1.50;;;0.40;;
78885;SDS011;68269;52.514;5.722;2023-04-24T12:35:47;5.28;;;0.50;;
78885;SDS011;68269;52.514;5.722;2023-04-24T12:38:21;3.83;;;0.75;;
78885;SDS011;68269;52.514;5.722;2023-04-24T12:41:01;2.97;;;0.60;;
78885;SDS011;68269;52.514;5.722;2023-04-24T12:43:33;1.75;;;0.40;;
78885;SDS011;68269;52.514;5.722;2023-04-24T12:46:03;1.75;;;0.50;;
78885;SDS011;68269;52.514;5.722;2023-04-24T12:48:33;1.83;;;0.40;;
78885;SDS011;68269;52.514;5.722;2023-04-24T12:51:02;3.00;;;0.57;;
78885;SDS011;68269;52.514;5.722;2023-04-24T12:53:32;5.15;;;0.85;;
78885;SDS011;68269;52.514;5.722;2023-04-24T12:56:01;3.72;;;0.70;;
78885;SDS011;68269;52.514;5.722;2023-04-24T12:58:33;4.35;;;0.70;;
78885;SDS011;68269;52.514;5.722;2023-04-24T13:01:02;6.10;;;0.90;;
78885;SDS011;68269;52.514;5.722;2023-04-24T13:03:32;3.95;;;0.80;;
78885;SDS011;68269;52.514;5.722;2023-04-24T13:06:01;5.20;;;0.90;;
78885;SDS011;68269;52.514;5.722;2023-04-24T13:08:30;2.42;;;0.45;;
78885;SDS011;68269;52.514;5.722;2023-04-24T13:11:00;8.23;;;1.10;;
78885;SDS011;68269;52.514;5.722;2023-04-24T13:13:29;1.95;;;0.60;;
78885;SDS011;68269;52.514;5.722;2023-04-24T13:16:01;2.70;;;0.63;;
78885;SDS011;68269;52.514;5.722;2023-04-24T13:18:30;3.83;;;0.80;;
78885;SDS011;68269;52.514;5.722;2023-04-24T13:20:59;3.42;;;0.70;;
78885;SDS011;68269;52.514;5.722;2023-04-24T13:23:29;9.45;;;1.00;;
78885;SDS011;68269;52.514;5.722;2023-04-24T13:25:58;8.40;;;0.90;;
78885;SDS011;68269;52.514;5.722;2023-04-24T13:28:27;3.65;;;0.60;;
78885;SDS011;68269;52.514;5.722;2023-04-24T13:30:57;3.22;;;0.52;;
78885;SDS011;68269;52.514;5.722;2023-04-24T13:33:29;3.03;;;0.50;;
78885;SDS011;68269;52.514;5.722;2023-04-24T13:35:58;2.55;;;0.63;;
78885;SDS011;68269;52.514;5.722;2023-04-24T13:38:27;3.67;;;0.77;;
78885;SDS011;68269;52.514;5.722;2023-04-24T13:40:57;2.22;;;0.55;;
78885;SDS011;68269;52.514;5.722;2023-04-24T13:43:26;2.75;;;0.75;;
78885;SDS011;68269;52.514;5.722;2023-04-24T13:45:55;2.85;;;0.63;;
78885;SDS011;68269;52.514;5.722;2023-04-24T13:48:30;8.10;;;1.08;;
78885;SDS011;68269;52.514;5.722;2023-04-24T13:50:59;5.25;;;0.88;;
78885;SDS011;68269;52.514;5.722;2023-04-24T13:53:28;2.10;;;0.70;;
78885;SDS011;68269;52.514;5.722;2023-04-24T13:55:58;6.60;;;1.00;;
78885;SDS011;68269;52.514;5.722;2023-04-24T13:58:27;4.80;;;0.60;;
78885;SDS011;68269;52.514;5.722;2023-04-24T14:00:57;7.20;;;1.38;;
78885;SDS011;68269;52.514;5.722;2023-04-24T14:03:29;5.45;;;1.35;;
78885;SDS011;68269;52.514;5.722;2023-04-24T14:05:59;6.60;;;1.08;;
78885;SDS011;68269;52.514;5.722;2023-04-24T14:08:28;5.53;;;1.38;;
78885;SDS011;68269;52.514;5.722;2023-04-24T14:10:57;3.97;;;1.15;;
78885;SDS011;68269;52.514;5.722;2023-04-24T14:13:27;7.00;;;1.30;;
78885;SDS011;68269;52.514;5.722;2023-04-24T14:15:57;4.78;;;1.35;;
78885;SDS011;68269;52.514;5.722;2023-04-24T14:18:26;7.18;;;1.38;;
78885;SDS011;68269;52.514;5.722;2023-04-24T14:20:58;6.18;;;1.40;;
78885;SDS011;68269;52.514;5.722;2023-04-24T14:23:28;7.45;;;1.60;;
78885;SDS011;68269;52.514;5.722;2023-04-24T14:25:58;7.57;;;1.27;;
78885;SDS011;68269;52.514;5.722;2023-04-24T14:28:27;7.05;;;1.35;;
78885;SDS011;68269;52.514;5.722;2023-04-24T14:30:56;10.52;;;1.67;;
78885;SDS011;68269;52.514;5.722;2023-04-24T14:33:26;5.13;;;1.27;;
78885;SDS011;68269;52.514;5.722;2023-04-24T14:35:58;5.40;;;1.00;;
78885;SDS011;68269;52.514;5.722;2023-04-24T14:38:28;9.60;;;1.30;;
78885;SDS011;68269;52.514;5.722;2023-04-24T14:40:57;7.93;;;1.38;;
78885;SDS011;68269;52.514;5.722;2023-04-24T14:43:27;11.52;;;1.42;;
78885;SDS011;68269;52.514;5.722;2023-04-24T14:45:56;7.25;;;1.42;;
78885;SDS011;68269;52.514;5.722;2023-04-24T14:48:25;8.07;;;1.42;;
78885;SDS011;68269;52.514;5.722;2023-04-24T14:50:58;8.70;;;1.30;;
78885;SDS011;68269;52.514;5.722;2023-04-24T14:53:27;4.05;;;0.90;;
78885;SDS011;68269;52.514;5.722;2023-04-24T14:55:56;3.75;;;0.80;;
78885;SDS011;68269;52.514;5.722;2023-04-24T14:58:26;5.88;;;0.85;;
78885;SDS011;68269;52.514;5.722;2023-04-24T15:00:55;3.17;;;0.88;;
78885;SDS011;68269;52.514;5.722;2023-04-24T15:03:24;4.18;;;0.93;;
78885;SDS011;68269;52.514;5.722;2023-04-24T15:05:55;4.55;;;1.17;;
78885;SDS011;68269;52.514;5.722;2023-04-24T15:08:26;9.13;;;1.58;;
78885;SDS011;68269;52.514;5.722;2023-04-24T15:10:56;7.78;;;1.45;;
78885;SDS011;68269;52.514;5.722;2023-04-24T15:13:25;11.10;;;1.67;;
78885;SDS011;68269;52.514;5.722;2023-04-24T15:15:54;10.23;;;1.33;;
78885;SDS011;68269;52.514;5.722;2023-04-24T15:18:24;8.45;;;1.45;;
78885;SDS011;68269;52.514;5.722;2023-04-24T15:20:54;8.05;;;1.80;;
78885;SDS011;68269;52.514;5.722;2023-04-24T15:23:26;9.98;;;1.30;;